Time;durP1;ratioP1;P1;durP2;ratioP2;P2;SDS_P1;SDS_P2;PMS_P1;PMS_P2;Temp;Humidity;BMP_temperature;BMP_pressure;BME280_temperature;BME280_humidity;BME280_pressure;Samples;Min_cycle;Max_cycle;Signal;HPM_P1;HPM_P2
2022/10/24 00:01:15;;;;;;;9.30;3.00;;;;;;;15.12;100.00;100261.00;5043285;28;20523;-93
2022/10/24 00:03:41;;;;;;;10.97;3.10;;;;;;;15.10;100.00;100258.53;5044988;28;20060;-92
2022/10/24 00:06:08;;;;;;;10.00;2.73;;;;;;;15.07;100.00;100250.00;5044287;28;20120;-93
2022/10/24 00:08:35;;;;;;;9.57;3.27;;;;;;;15.08;100.00;100259.84;5042688;28;20448;-92
2022/10/24 00:11:01;;;;;;;9.17;2.83;;;;;;;15.08;100.00;100254.41;5046599;28;20134;-90
2022/10/24 00:13:27;;;;;;;8.67;2.80;;;;;;;15.06;100.00;100251.94;5046167;28;20105;-92
2022/10/24 00:15:52;;;;;;;7.57;2.80;;;;;;;15.09;100.00;100245.13;5045144;28;20041;-94
2022/10/24 00:18:18;;;;;;;12.07;3.13;;;;;;;15.12;99.25;100230.97;5025791;28;20068;-94
2022/10/24 00:20:43;;;;;;;9.47;3.37;;;;;;;15.28;98.67;100240.16;5048684;28;20087;-95
2022/10/24 00:23:10;;;;;;;12.60;3.40;;;;;;;15.31;97.68;100236.91;5047762;28;20045;-92
2022/10/24 00:25:36;;;;;;;7.67;2.80;;;;;;;15.32;96.68;100236.63;5048213;28;20039;-91
2022/10/24 00:28:01;;;;;;;13.20;3.03;;;;;;;15.30;96.83;100233.34;5048033;28;20032;-91
2022/10/24 00:30:27;;;;;;;10.67;3.40;;;;;;;15.32;96.76;100233.09;5046076;28;20492;-90
2022/10/24 00:32:52;;;;;;;9.60;2.83;;;;;;;15.41;95.14;100230.69;5049226;28;20108;-92
2022/10/24 00:35:18;;;;;;;16.33;3.87;;;;;;;15.38;95.75;100240.25;5049531;28;20041;-92
2022/10/24 00:37:43;;;;;;;12.90;3.20;;;;;;;15.41;94.65;100226.09;5047397;28;20047;-90
2022/10/24 00:40:13;;;;;;;9.80;3.10;;;;;;;15.51;93.54;100230.81;5047081;28;20056;-91
2022/10/24 00:42:38;;;;;;;7.73;2.83;;;;;;;15.57;92.51;100235.25;5047400;28;20118;-95
2022/10/24 00:45:37;;;;;;;12.63;3.50;;;;;;;15.63;91.60;100239.66;5022647;28;20134;-90
2022/10/24 00:48:12;;;;;;;9.77;2.73;;;;;;;15.77;90.12;100228.28;5037419;28;20106;-93
2022/10/24 00:50:38;;;;;;;10.40;3.00;;;;;;;15.79;89.49;100231.56;5047283;28;20041;-93
2022/10/24 00:53:03;;;;;;;11.33;3.40;;;;;;;15.74;90.14;100228.81;5045141;28;20062;-91
2022/10/24 00:55:28;;;;;;;8.30;3.00;;;;;;;15.79;89.36;100221.47;5048272;28;20051;-91
2022/10/24 00:57:57;;;;;;;10.00;3.03;;;;;;;15.81;89.03;100218.50;5046394;28;20522;-91
2022/10/24 01:00:26;;;;;;;10.23;3.10;;;;;;;15.83;88.65;100219.09;5045326;28;20044;-94
2022/10/24 01:02:52;;;;;;;10.40;3.70;;;;;;;15.84;87.60;100209.78;5048361;28;20037;-91
2022/10/24 01:05:20;;;;;;;12.80;2.73;;;;;;;15.98;87.10;100210.16;5021542;28;20112;-94
2022/10/24 01:08:21;;;;;;;10.83;3.53;;;;;;;15.94;87.07;100204.41;5046588;28;20040;-91
2022/10/24 01:11:11;;;;;;;8.90;3.03;;;;;;;15.98;86.50;100223.81;5029453;28;20048;-92
2022/10/24 01:13:46;;;;;;;13.40;3.30;;;;;;;16.02;85.90;100216.75;5046313;28;20052;-94
2022/10/24 01:16:23;;;;;;;11.40;3.20;;;;;;;16.01;85.76;100215.91;5045537;28;20123;-90
2022/10/24 01:19:12;;;;;;;11.00;3.10;;;;;;;15.93;87.09;100215.59;5044201;28;20051;-93
2022/10/24 01:22:06;;;;;;;9.90;2.90;;;;;;;16.01;85.25;100215.09;5044433;28;20044;-93
2022/10/24 01:25:06;;;;;;;14.00;3.13;;;;;;;15.99;85.86;100217.25;5047862;28;20039;-92
2022/10/24 01:27:50;;;;;;;12.23;3.17;;;;;;;16.04;84.99;100214.56;5046607;28;20484;-90
2022/10/24 01:30:17;;;;;;;8.32;2.90;;;;;;;16.03;84.82;100215.66;5044318;28;20056;-94
2022/10/24 01:32:55;;;;;;;11.70;3.53;;;;;;;16.07;84.21;100207.75;5048136;28;20047;-91
2022/10/24 01:35:34;;;;;;;12.23;2.83;;;;;;;15.96;84.56;100195.94;5044819;28;20123;-92
2022/10/24 01:38:27;;;;;;;8.97;2.77;;;;;;;16.04;83.74;100209.91;5045259;28;20064;-91
2022/10/24 01:40:59;;;;;;;8.23;2.60;;;;;;;16.00;83.77;100200.59;5045059;28;20037;-91
2022/10/24 01:43:30;;;;;;;7.97;2.77;;;;;;;16.07;82.44;100200.38;5044821;28;20091;-92
2022/10/24 01:46:19;;;;;;;6.37;2.60;;;;;;;16.09;82.99;100205.56;5044911;28;20146;-91
2022/10/24 01:48:51;;;;;;;9.00;2.90;;;;;;;16.12;81.72;100184.00;5044964;28;20124;-93
2022/10/24 01:51:21;;;;;;;10.77;2.97;;;;;;;16.11;81.19;100198.75;5043676;28;20569;-94
2022/10/24 01:53:47;;;;;;;9.87;2.87;;;;;;;16.04;81.50;100185.31;5044522;28;20059;-94
2022/10/24 01:56:12;;;;;;;6.33;2.50;;;;;;;16.16;80.38;100176.13;5044534;28;20511;-92
2022/10/24 01:58:38;;;;;;;7.37;2.50;;;;;;;16.12;80.65;100192.22;5043823;28;20120;-93
2022/10/24 02:01:08;;;;;;;5.80;2.40;;;;;;;16.06;80.90;100195.16;5044927;28;20135;-91
2022/10/24 02:04:02;;;;;;;8.20;2.70;;;;;;;16.03;80.76;100186.44;5044590;28;20112;-90
2022/10/24 02:06:41;;;;;;;5.67;2.30;;;;;;;16.04;80.53;100185.31;5042315;28;20049;-91
2022/10/24 02:09:29;;;;;;;5.60;2.20;;;;;;;15.95;80.61;100186.09;5045046;28;20028;-92
2022/10/24 02:11:57;;;;;;;6.73;2.30;;;;;;;16.14;79.15;100189.19;5043313;28;20059;-93
2022/10/24 02:14:30;;;;;;;6.47;2.50;;;;;;;16.00;79.74;100186.94;5042270;28;20464;-93
2022/10/24 02:16:55;;;;;;;7.10;2.43;;;;;;;16.00;79.80;100188.84;5043350;28;20033;-91
2022/10/24 02:19:21;;;;;;;9.60;2.23;;;;;;;16.01;79.38;100183.13;5043400;28;20051;-90
2022/10/24 02:22:10;;;;;;;7.10;2.30;;;;;;;16.04;79.05;100182.59;5044715;28;20045;-91
2022/10/24 02:25:07;;;;;;;8.97;2.50;;;;;;;15.99;79.32;100181.75;5045661;28;20396;-94
2022/10/24 02:27:48;;;;;;;6.57;2.30;;;;;;;15.93;80.24;100191.81;5019140;28;20033;-92
2022/10/24 02:30:20;;;;;;;6.27;2.20;;;;;;;15.95;79.39;100186.09;5044177;28;20041;-91
2022/10/24 02:32:50;;;;;;;6.70;2.40;;;;;;;15.88;78.96;100172.66;5043032;28;20033;-91
2022/10/24 02:35:18;;;;;;;8.07;2.40;;;;;;;15.88;79.27;100182.78;5042710;28;21417;-94
2022/10/24 02:37:51;;;;;;;6.30;2.50;;;;;;;15.99;78.59;100181.75;5042199;28;20033;-93
2022/10/24 02:40:18;;;;;;;6.07;2.17;;;;;;;15.89;79.15;100178.97;5042471;28;20594;-91
2022/10/24 02:42:46;;;;;;;6.23;2.40;;;;;;;15.94;78.51;100168.03;5043177;28;20752;-93
2022/10/24 02:45:14;;;;;;;9.77;2.33;;;;;;;15.87;78.80;100184.69;5042794;28;20033;-89
2022/10/24 02:47:41;;;;;;;8.37;2.10;;;;;;;15.86;78.54;100186.59;5044096;28;20047;-91
2022/10/24 02:50:07;;;;;;;6.30;2.40;;;;;;;15.92;78.45;100186.63;5044555;28;20036;-91
2022/10/24 02:52:35;;;;;;;6.70;2.10;;;;;;;15.85;78.49;100186.84;5042507;28;20039;-93
2022/10/24 02:55:01;;;;;;;9.67;2.63;;;;;;;15.89;77.96;100176.22;5024604;28;20040;-90
2022/10/24 02:57:27;;;;;;;7.93;2.30;;;;;;;15.84;78.15;100185.19;5042342;28;20044;-94
2022/10/24 02:59:52;;;;;;;8.30;2.20;;;;;;;15.83;78.50;100189.03;5024402;28;20041;-91
2022/10/24 03:02:18;;;;;;;7.10;2.30;;;;;;;15.92;77.49;100181.97;5041708;28;20029;-92
2022/10/24 03:04:44;;;;;;;5.90;2.33;;;;;;;15.94;77.19;100177.09;5042973;28;20129;-90
2022/10/24 03:07:10;;;;;;;5.27;2.13;;;;;;;15.97;76.93;100186.66;5043241;28;20691;-92
2022/10/24 03:09:35;;;;;;;6.70;2.20;;;;;;;15.96;77.02;100185.81;5042822;28;20083;-91
2022/10/24 03:12:00;;;;;;;6.63;2.30;;;;;;;15.94;77.74;100190.75;5043472;28;20056;-92
2022/10/24 03:14:26;;;;;;;5.37;1.97;;;;;;;16.01;76.64;100195.97;5043178;28;20492;-93
2022/10/24 03:16:51;;;;;;;6.10;2.30;;;;;;;15.99;76.86;100192.66;5042833;28;20055;-90
2022/10/24 03:19:16;;;;;;;5.87;2.03;;;;;;;16.10;75.60;100182.63;5043064;28;20219;-93
2022/10/24 03:21:42;;;;;;;5.90;2.00;;;;;;;16.20;75.32;100188.16;5041800;28;20417;-94
2022/10/24 03:24:07;;;;;;;7.83;2.17;;;;;;;16.12;75.76;100185.94;5040917;28;20480;-93
2022/10/24 03:26:33;;;;;;;4.67;2.10;;;;;;;16.07;76.06;100185.91;5041336;28;20493;-92
2022/10/24 03:28:58;;;;;;;7.27;2.27;;;;;;;16.00;76.05;100177.94;5042861;28;20087;-90
2022/10/24 03:31:24;;;;;;;7.10;2.33;;;;;;;16.04;75.91;100181.78;5042135;28;20037;-91
2022/10/24 03:33:49;;;;;;;5.10;2.13;;;;;;;15.97;76.58;100192.94;5031056;28;20378;-90
2022/10/24 03:36:15;;;;;;;4.97;2.00;;;;;;;15.97;76.68;100186.66;5044659;28;20118;-88
2022/10/24 03:38:40;;;;;;;8.57;2.33;;;;;;;15.91;77.00;100174.88;5042276;28;20582;-89
2022/10/24 03:41:06;;;;;;;7.00;2.30;;;;;;;15.88;76.97;100167.19;5043553;28;20040;-90
2022/10/24 03:43:31;;;;;;;4.93;2.07;;;;;;;15.80;77.58;100164.97;5044572;28;20440;-91
2022/10/24 03:45:56;;;;;;;9.67;2.70;;;;;;;15.69;78.57;100173.06;5042735;28;20040;-92
2022/10/24 03:48:22;;;;;;;13.37;2.27;;;;;;;15.70;78.42;100168.41;5013413;28;20040;-95
2022/10/24 03:50:47;;;;;;;5.73;2.20;;;;;;;15.66;78.45;100168.13;5041871;28;20053;-91
2022/10/24 03:53:12;;;;;;;6.83;2.23;;;;;;;15.73;78.12;100167.06;5035779;28;20056;-93
2022/10/24 03:55:38;;;;;;;5.97;2.30;;;;;;;15.72;78.25;100162.69;5044432;28;20051;-91
2022/10/24 03:58:03;;;;;;;8.43;2.30;;;;;;;15.65;78.75;100149.25;5043837;28;20435;-91
2022/10/24 04:00:28;;;;;;;6.90;2.10;;;;;;;15.56;79.15;100157.13;5042924;28;20037;-94
2022/10/24 04:03:23;;;;;;;7.60;2.27;;;;;;;15.63;78.82;100156.91;5043200;28;20039;-92
2022/10/24 04:05:48;;;;;;;8.38;2.20;;;;;;;15.68;78.54;100168.69;5042972;28;20040;-94
2022/10/24 04:08:13;;;;;;;5.30;2.30;;;;;;;15.74;78.50;100172.28;5043452;28;20041;-88
2022/10/24 04:10:39;;;;;;;8.07;2.17;;;;;;;15.72;78.27;100163.53;5042761;28;20080;-93
2022/10/24 04:13:04;;;;;;;7.83;2.30;;;;;;;15.88;77.39;100164.47;5041354;28;20039;-92
2022/10/24 04:15:30;;;;;;;8.43;2.40;;;;;;;15.79;78.25;100161.38;5024339;28;20029;-94
2022/10/24 04:17:55;;;;;;;5.93;2.20;;;;;;;15.88;77.91;100167.19;5041367;28;20087;-93
2022/10/24 04:20:22;;;;;;;9.67;2.37;;;;;;;15.81;78.47;100166.63;5025485;28;20044;-89
2022/10/24 04:22:47;;;;;;;5.07;1.93;;;;;;;15.94;77.44;100168.88;5041378;28;20033;-95
2022/10/24 04:25:13;;;;;;;8.53;2.57;;;;;;;15.94;77.30;100149.75;5041330;28;20574;-94
2022/10/24 04:27:39;;;;;;;10.50;2.30;;;;;;;15.85;77.55;100149.41;5041753;28;20040;-91
2022/10/24 04:30:09;;;;;;;6.83;2.10;;;;;;;15.79;78.68;100158.66;5041921;28;20052;-91
2022/10/24 04:32:35;;;;;;;6.33;2.30;;;;;;;15.77;78.30;100151.81;5023959;28;20048;-92
2022/10/24 04:35:02;;;;;;;8.03;2.20;;;;;;;15.84;77.82;100153.25;5017578;28;20408;-90
2022/10/24 04:37:27;;;;;;;5.23;2.03;;;;;;;15.77;77.84;100160.81;5041869;28;20136;-91
2022/10/24 04:39:53;;;;;;;5.80;2.00;;;;;;;15.74;78.13;100158.63;5043934;28;20043;-92
2022/10/24 04:42:19;;;;;;;5.57;2.27;;;;;;;15.90;77.13;100159.56;5041720;28;20129;-87
2022/10/24 04:44:45;;;;;;;6.47;2.00;;;;;;;15.85;77.41;100170.47;5041984;28;20053;-94
2022/10/24 04:47:10;;;;;;;4.33;2.13;;;;;;;15.92;76.63;100171.03;5023374;28;20195;-88
2022/10/24 04:49:35;;;;;;;7.17;2.00;;;;;;;15.94;76.41;100166.16;5040513;28;20148;-92
2022/10/24 04:52:01;;;;;;;5.87;1.90;;;;;;;15.88;76.48;100167.19;5018446;28;20048;-87
2022/10/24 04:54:26;;;;;;;6.37;2.00;;;;;;;15.88;76.87;100177.31;5042105;28;20448;-94
2022/10/24 04:56:51;;;;;;;6.37;1.83;;;;;;;15.84;76.73;100172.38;5022924;28;20079;-89
2022/10/24 04:59:17;;;;;;;8.03;2.13;;;;;;;15.94;76.63;100176.25;5040850;28;20133;-93
2022/10/24 05:01:42;;;;;;;5.57;1.80;;;;;;;15.88;76.93;100175.38;5023530;28;20124;-89
2022/10/24 05:04:08;;;;;;;7.30;2.30;;;;;;;15.76;77.67;100174.75;5042372;28;20059;-93
2022/10/24 05:06:33;;;;;;;6.60;2.00;;;;;;;15.78;77.79;100175.31;5045934;28;20452;-92
2022/10/24 05:08:59;;;;;;;7.47;2.30;;;;;;;15.80;77.35;100170.44;5046481;28;20730;-91
2022/10/24 05:11:25;;;;;;;7.93;2.10;;;;;;;15.78;77.56;100178.84;5046855;28;20048;-91
2022/10/24 05:13:50;;;;;;;10.00;2.50;;;;;;;15.79;77.49;100164.13;5027916;28;20032;-89
2022/10/24 05:16:16;;;;;;;8.50;2.03;;;;;;;15.74;77.86;100166.00;5021887;28;20079;-94
2022/10/24 05:18:41;;;;;;;6.33;2.00;;;;;;;15.67;78.26;100168.97;5045492;28;20063;-90
2022/10/24 05:21:07;;;;;;;5.27;2.10;;;;;;;15.73;78.37;100180.72;5021474;28;20431;-92
2022/10/24 05:23:32;;;;;;;8.20;2.37;;;;;;;15.58;79.05;100174.06;5045727;28;20117;-92
2022/10/24 05:25:57;;;;;;;7.57;2.40;;;;;;;15.63;78.83;100176.84;5047765;28;20072;-94
2022/10/24 05:28:23;;;;;;;4.30;1.77;;;;;;;15.73;78.33;100175.28;5004917;28;20045;-92
2022/10/24 05:30:48;;;;;;;8.63;2.73;;;;;;;15.68;79.86;100195.19;5029059;28;20044;-93
2022/10/24 05:33:13;;;;;;;6.47;2.43;;;;;;;15.74;79.15;100179.66;5001801;28;20045;-91
2022/10/24 05:35:40;;;;;;;8.10;2.03;;;;;;;15.67;79.59;100182.59;5044224;28;20122;-91
2022/10/24 05:38:06;;;;;;;8.03;2.70;;;;;;;15.77;79.20;100181.84;5043828;28;20044;-93
2022/10/24 05:40:31;;;;;;;7.90;2.20;;;;;;;15.70;80.19;100199.28;5044822;28;20020;-92
2022/10/24 05:42:56;;;;;;;7.43;2.80;;;;;;;15.76;79.41;100185.66;5044716;28;20357;-90
2022/10/24 05:45:22;;;;;;;6.90;2.20;;;;;;;15.84;78.96;100196.97;5043158;28;20033;-91
2022/10/24 05:47:47;;;;;;;8.07;2.10;;;;;;;15.94;78.65;100189.91;5043963;28;20045;-93
2022/10/24 05:50:13;;;;;;;8.57;2.20;;;;;;;15.89;78.78;100192.63;5042699;28;20115;-93
2022/10/24 05:52:41;;;;;;;10.00;2.30;;;;;;;15.89;79.05;100189.91;5025392;28;20131;-89
2022/10/24 05:55:08;;;;;;;8.63;2.30;;;;;;;15.87;79.33;100187.44;5000423;28;20061;-91
2022/10/24 05:57:34;;;;;;;7.07;2.70;;;;;;;15.85;78.58;100184.13;5043958;28;20037;-93
2022/10/24 05:59:59;;;;;;;8.47;2.33;;;;;;;15.84;78.92;100186.03;5042972;28;20033;-94
2022/10/24 06:02:25;;;;;;;9.97;2.53;;;;;;;15.85;79.03;100203.25;5044313;28;20048;-94
2022/10/24 06:04:51;;;;;;;10.23;2.40;;;;;;;15.78;79.13;100178.84;5042938;28;20821;-94
2022/10/24 06:07:17;;;;;;;8.10;2.40;;;;;;;15.86;78.57;100194.78;5044500;28;20043;-90
2022/10/24 06:09:43;;;;;;;10.97;3.10;;;;;;;15.72;79.17;100200.94;5044375;28;20489;-93
2022/10/24 06:12:10;;;;;;;8.50;2.17;;;;;;;15.78;78.91;100200.72;5042679;28;20053;-90
2022/10/24 06:14:37;;;;;;;8.83;2.63;;;;;;;15.75;78.94;100189.47;5005434;28;20519;-92
2022/10/24 06:17:04;;;;;;;8.33;2.43;;;;;;;15.76;78.72;100193.84;5043569;28;20033;-89
2022/10/24 06:19:30;;;;;;;7.97;2.20;;;;;;;15.78;78.82;100192.50;5043877;28;20497;-93
2022/10/24 06:21:55;;;;;;;11.17;2.40;;;;;;;15.79;78.77;100207.81;5026576;28;20048;-90
2022/10/24 06:24:20;;;;;;;8.33;2.40;;;;;;;15.76;79.05;100204.78;5043098;28;20455;-89
2022/10/24 06:26:46;;;;;;;11.03;2.37;;;;;;;15.67;79.58;100210.72;5037150;28;20036;-94
2022/10/24 06:29:11;;;;;;;9.27;2.30;;;;;;;15.64;79.96;100214.00;5043064;28;20499;-91
2022/10/24 06:31:37;;;;;;;9.53;2.40;;;;;;;15.81;78.99;100221.25;5025668;28;20036;-93
2022/10/24 06:34:02;;;;;;;10.63;2.60;;;;;;;15.83;78.57;100221.81;5019174;28;20061;-93
2022/10/24 06:36:27;;;;;;;8.57;2.40;;;;;;;15.63;80.20;100220.53;5044756;28;20040;-94
2022/10/24 06:38:53;;;;;;;10.73;2.67;;;;;;;15.66;80.03;100217.28;5019171;28;20037;-93
2022/10/24 06:41:19;;;;;;;9.30;2.47;;;;;;;15.68;79.85;100203.38;5042336;28;20132;-91
2022/10/24 06:43:44;;;;;;;9.43;2.60;;;;;;;15.73;79.89;100222.50;5042642;28;20032;-89
2022/10/24 06:46:12;;;;;;;9.13;2.80;;;;;;;15.72;79.96;100240.00;5034438;28;20040;-91
2022/10/24 06:48:38;;;;;;;10.47;2.83;;;;;;;15.64;80.62;100235.84;5043355;28;20033;-92
2022/10/24 06:51:04;;;;;;;10.33;2.33;;;;;;;15.70;80.51;100242.97;5035253;28;20586;-91
2022/10/24 06:53:31;;;;;;;11.17;2.67;;;;;;;15.56;81.26;100238.19;5044704;28;20054;-89
2022/10/24 06:56:00;;;;;;;10.93;2.67;;;;;;;15.59;81.27;100254.91;5043498;28;20032;-93
2022/10/24 06:58:30;;;;;;;9.23;2.30;;;;;;;15.52;81.97;100251.56;5045230;28;21471;-94
2022/10/24 07:00:55;;;;;;;13.53;2.97;;;;;;;15.47;82.04;100254.25;5044581;28;20029;-91
2022/10/24 07:03:21;;;;;;;9.97;2.40;;;;;;;15.53;81.30;100245.84;5043150;28;20170;-92
2022/10/24 07:05:46;;;;;;;8.23;2.70;;;;;;;15.66;81.00;100258.22;5020139;28;20056;-92
2022/10/24 07:08:11;;;;;;;12.33;2.97;;;;;;;15.69;80.63;100244.06;5020627;28;20036;-93
2022/10/24 07:10:37;;;;;;;8.57;2.60;;;;;;;15.74;80.66;100267.06;5042876;28;20052;-91
2022/10/24 07:13:02;;;;;;;11.60;2.70;;;;;;;15.78;80.71;100268.19;5024244;28;20127;-89
2022/10/24 07:15:27;;;;;;;8.97;2.30;;;;;;;15.71;81.17;100271.13;5041107;28;20041;-90
2022/10/24 07:17:53;;;;;;;10.10;2.90;;;;;;;15.76;81.47;100273.06;4982660;28;20044;-93
2022/10/24 07:20:18;;;;;;;11.50;2.80;;;;;;;15.82;81.41;100283.00;5041855;28;20072;-91
2022/10/24 07:22:44;;;;;;;10.13;2.33;;;;;;;15.75;82.13;100283.19;5042286;28;20508;-93
2022/10/24 07:25:09;;;;;;;10.63;2.60;;;;;;;15.70;83.00;100281.19;5041802;28;20033;-90
2022/10/24 07:27:35;;;;;;;10.87;2.57;;;;;;;15.74;83.31;100272.50;5042194;28;20064;-88
2022/10/24 07:30:00;;;;;;;9.00;2.77;;;;;;;15.79;83.68;100286.19;5041374;28;20043;-93
2022/10/24 07:32:25;;;;;;;13.67;3.00;;;;;;;15.80;84.28;100298.81;5045789;28;20445;-93
2022/10/24 07:34:51;;;;;;;10.77;2.57;;;;;;;15.84;84.06;100305.38;5043816;28;20382;-92
2022/10/24 07:37:16;;;;;;;12.47;2.63;;;;;;;15.78;84.46;100311.88;5018668;28;20048;-91
2022/10/24 07:39:42;;;;;;;13.33;3.03;;;;;;;15.72;84.54;100304.72;5042031;28;20044;-91
2022/10/24 07:42:10;;;;;;;11.17;2.73;;;;;;;15.78;84.50;100317.34;5024003;28;20120;-90
2022/10/24 07:44:35;;;;;;;11.43;2.60;;;;;;;15.70;84.29;100308.53;5043110;28;20037;-92
2022/10/24 07:47:05;;;;;;;8.97;2.67;;;;;;;15.84;83.06;100328.09;5043212;28;20047;-91
2022/10/24 07:49:34;;;;;;;11.57;2.60;;;;;;;15.80;83.36;100326.13;5019437;28;20033;-91
2022/10/24 07:51:59;;;;;;;9.87;2.60;;;;;;;15.95;82.43;100326.28;5042100;28;20032;-90
2022/10/24 07:54:25;;;;;;;10.27;2.63;;;;;;;15.99;81.84;100327.41;5041321;28;20041;-90
2022/10/24 07:56:51;;;;;;;12.30;2.30;;;;;;;15.85;82.78;100324.25;5041900;28;20040;-94
2022/10/24 07:59:16;;;;;;;7.13;2.20;;;;;;;15.92;82.37;100334.16;5043372;28;20123;-92
2022/10/24 08:01:42;;;;;;;10.63;2.40;;;;;;;15.78;83.07;100345.47;5041137;28;20167;-92
2022/10/24 08:04:09;;;;;;;11.47;2.63;;;;;;;15.75;84.02;100365.13;5040961;28;20045;-89
2022/10/24 08:06:34;;;;;;;10.03;2.60;;;;;;;15.68;85.69;100364.50;5042045;28;20112;-94
2022/10/24 08:09:00;;;;;;;8.67;2.40;;;;;;;15.53;87.67;100354.25;5017554;28;20404;-90
2022/10/24 08:11:27;;;;;;;9.03;2.40;;;;;;;15.46;87.40;100376.28;5023673;28;20049;-88
2022/10/24 08:13:55;;;;;;;12.37;2.50;;;;;;;15.55;86.29;100348.53;5022459;28;20040;-89
2022/10/24 08:16:22;;;;;;;10.00;2.50;;;;;;;15.74;84.76;100354.44;5041401;28;20106;-93
2022/10/24 08:19:02;;;;;;;10.77;2.37;;;;;;;15.82;84.91;100356.75;5024330;28;20044;-88
2022/10/24 08:21:30;;;;;;;8.90;2.40;;;;;;;15.73;84.97;100347.34;5040970;28;20036;-93
2022/10/24 08:23:55;;;;;;;8.27;2.33;;;;;;;15.74;85.24;100365.38;5041534;28;20161;-92
2022/10/24 08:26:23;;;;;;;10.47;2.30;;;;;;;15.77;83.66;100368.41;5022539;28;20037;-91
2022/10/24 08:28:49;;;;;;;9.60;2.40;;;;;;;15.81;84.29;100375.03;5041280;28;20464;-92
2022/10/24 08:31:18;;;;;;;11.23;2.43;;;;;;;15.85;83.15;100378.88;5041046;28;20091;-87
2022/10/24 08:33:44;;;;;;;9.50;2.30;;;;;;;15.88;83.24;100376.72;5033186;28;20552;-94
2022/10/24 08:36:20;;;;;;;9.03;2.37;;;;;;;15.99;82.63;100387.50;5040344;28;20044;-92
2022/10/24 08:38:45;;;;;;;8.93;2.93;;;;;;;15.94;83.03;100375.69;5042256;28;20052;-88
2022/10/24 08:41:27;;;;;;;9.10;2.43;;;;;;;15.93;82.70;100365.84;5027018;28;20029;-88
2022/10/24 08:43:55;;;;;;;9.50;2.17;;;;;;;15.96;80.74;100384.47;5044582;28;20040;-90
2022/10/24 08:46:38;;;;;;;7.37;2.40;;;;;;;16.09;81.72;100377.72;5044907;28;20040;-91
2022/10/24 08:49:25;;;;;;;9.67;2.37;;;;;;;16.11;79.46;100379.13;5043452;28;20036;-88
2022/10/24 08:52:04;;;;;;;11.23;2.40;;;;;;;16.38;78.85;100384.53;5045377;28;20033;-90
2022/10/24 08:54:58;;;;;;;8.83;2.30;;;;;;;16.64;77.75;100381.97;5044121;28;20036;-88
2022/10/24 08:57:32;;;;;;;7.50;2.00;;;;;;;16.91;76.73;100380.25;5043617;28;20040;-89
2022/10/24 09:00:03;;;;;;;9.45;2.47;;;;;;;17.09;75.73;100390.72;5043763;28;20035;-92
2022/10/24 09:02:34;;;;;;;7.17;1.87;;;;;;;17.21;74.13;100390.53;5026691;28;20047;-91
2022/10/24 09:05:29;;;;;;;8.10;1.97;;;;;;;17.38;74.08;100393.88;5043557;28;20230;-90
2022/10/24 09:08:01;;;;;;;8.63;2.00;;;;;;;17.42;74.14;100388.69;5034138;28;20072;-90
2022/10/24 09:10:42;;;;;;;7.77;2.07;;;;;;;17.57;73.25;100393.41;5042595;28;20140;-88
2022/10/24 09:13:13;;;;;;;8.17;2.33;;;;;;;17.70;72.53;100392.84;5043681;28;20789;-91
2022/10/24 09:15:40;;;;;;;6.83;2.27;;;;;;;17.76;71.60;100404.69;5042971;28;20036;-89
2022/10/24 09:18:17;;;;;;;6.68;2.00;;;;;;;17.92;71.43;100410.22;5043927;28;20481;-91
2022/10/24 09:20:43;;;;;;;7.40;1.77;;;;;;;18.01;71.02;100412.13;5044188;28;20032;-91
2022/10/24 09:23:12;;;;;;;7.90;2.30;;;;;;;18.07;68.38;100425.84;5044388;28;20168;-91
2022/10/24 09:25:41;;;;;;;6.18;1.88;;;;;;;18.15;67.79;100417.09;5042865;28;20107;-87
2022/10/24 09:28:07;;;;;;;5.65;1.70;;;;;;;17.85;67.53;100418.66;5042746;28;20474;-91
2022/10/24 09:30:35;;;;;;;7.22;1.48;;;;;;;18.13;66.86;100435.72;5025327;28;20625;-92
2022/10/24 09:33:18;;;;;;;7.53;1.92;;;;;;;18.27;68.02;100442.31;5043758;28;20096;-88
2022/10/24 09:35:44;;;;;;;9.02;1.92;;;;;;;18.21;67.37;100425.03;5042897;28;20259;-91
2022/10/24 09:38:21;;;;;;;7.68;1.95;;;;;;;18.18;69.40;100424.75;5025236;28;20048;-89
2022/10/24 09:40:52;;;;;;;7.72;2.00;;;;;;;18.16;69.11;100429.69;5042746;28;20032;-91
2022/10/24 09:43:22;;;;;;;8.13;2.28;;;;;;;18.21;69.12;100435.19;5044770;28;20119;-92
2022/10/24 09:45:59;;;;;;;9.90;2.45;;;;;;;18.32;67.36;100433.28;5025099;28;20041;-87
2022/10/24 09:48:34;;;;;;;6.10;1.67;;;;;;;18.22;66.87;100439.56;5041285;28;20087;-89
2022/10/24 09:51:01;;;;;;;9.20;2.20;;;;;;;18.41;64.46;100441.78;5023295;28;20033;-89
2022/10/24 09:53:31;;;;;;;7.80;2.40;;;;;;;18.32;65.90;100456.03;5043309;28;20090;-89
2022/10/24 09:56:05;;;;;;;10.00;2.28;;;;;;;18.26;65.74;100454.38;5041448;28;20047;-89
2022/10/24 09:58:34;;;;;;;8.27;2.13;;;;;;;18.23;66.11;100457.66;5042773;28;20047;-89
2022/10/24 10:01:15;;;;;;;10.02;2.40;;;;;;;18.39;66.11;100458.50;5042326;28;20056;-90
2022/10/24 10:03:41;;;;;;;5.55;1.67;;;;;;;18.49;65.35;100422.03;5042699;28;20497;-90
2022/10/24 10:06:16;;;;;;;11.07;2.33;;;;;;;18.47;65.87;100460.69;5043491;28;20186;-90
2022/10/24 10:08:50;;;;;;;9.63;2.08;;;;;;;18.47;66.24;100468.13;5042806;28;20040;-90
2022/10/24 10:11:22;;;;;;;9.63;2.35;;;;;;;18.49;65.16;100471.41;5043445;28;20467;-93
2022/10/24 10:13:52;;;;;;;8.23;1.98;;;;;;;18.47;65.94;100474.41;5036590;28;20059;-91
2022/10/24 10:16:23;;;;;;;7.47;2.13;;;;;;;18.19;65.24;100484.00;5042564;28;20275;-89
2022/10/24 10:18:50;;;;;;;12.25;2.30;;;;;;;18.09;65.38;100473.84;5043000;28;20428;-93
2022/10/24 10:21:19;;;;;;;11.98;2.60;;;;;;;18.05;67.14;100486.44;5043312;28;20063;-89
2022/10/24 10:24:22;;;;;;;7.15;2.38;;;;;;;18.16;66.05;100490.84;5039820;28;20032;-86
2022/10/24 10:26:47;;;;;;;11.90;3.03;;;;;;;17.92;66.49;100490.50;5042253;28;20036;-89
2022/10/24 10:29:15;;;;;;;11.88;2.90;;;;;;;17.98;67.36;100494.09;5042757;28;20075;-91
2022/10/24 10:31:43;;;;;;;6.72;2.13;;;;;;;17.76;68.75;100481.41;5042701;28;20044;-91
2022/10/24 10:34:27;;;;;;;11.68;2.50;;;;;;;17.76;69.13;100494.25;5043980;28;20400;-94
2022/10/24 10:37:09;;;;;;;8.13;2.60;;;;;;;17.72;69.33;100497.53;5042768;28;20028;-93
2022/10/24 10:40:12;;;;;;;8.03;2.70;;;;;;;17.86;69.38;100506.06;5042961;28;20388;-89
2022/10/24 10:43:15;;;;;;;8.87;2.40;;;;;;;17.83;69.55;100503.06;5042065;28;20042;-91
2022/10/24 10:45:45;;;;;;;8.37;2.47;;;;;;;17.84;68.40;100507.44;5042254;28;20389;-88
2022/10/24 10:48:19;;;;;;;10.17;2.33;;;;;;;17.89;68.29;100502.78;5042736;28;20456;-90
2022/10/24 10:51:19;;;;;;;10.77;2.50;;;;;;;18.16;67.42;100510.03;5043061;28;20059;-88
2022/10/24 10:54:01;;;;;;;7.60;2.20;;;;;;;17.85;67.36;100509.09;5045221;28;20090;-87
2022/10/24 10:56:52;;;;;;;7.27;2.30;;;;;;;17.65;67.82;100515.31;5009391;28;20070;-87
2022/10/24 10:59:38;;;;;;;7.93;2.20;;;;;;;17.60;67.21;100518.84;5045023;28;20496;-93
2022/10/24 11:02:14;;;;;;;8.63;2.40;;;;;;;17.34;68.88;100523.38;5044590;28;20037;-90
2022/10/24 11:04:58;;;;;;;8.70;2.30;;;;;;;17.27;69.27;100528.25;5045073;28;20059;-90
2022/10/24 11:07:38;;;;;;;11.47;3.00;;;;;;;16.96;70.61;100517.09;5025396;28;20043;-88
2022/10/24 11:10:19;;;;;;;8.83;2.73;;;;;;;17.04;70.15;100531.13;5024432;28;20036;-87
2022/10/24 11:12:45;;;;;;;8.97;2.10;;;;;;;16.96;70.36;100528.88;5042762;28;20036;-92
2022/10/24 11:15:17;;;;;;;9.03;2.03;;;;;;;16.84;72.52;100536.41;5042906;28;20043;-89
2022/10/24 11:18:03;;;;;;;10.13;2.20;;;;;;;16.71;74.14;100537.66;5044342;28;20020;-91
2022/10/24 11:21:00;;;;;;;8.43;2.40;;;;;;;16.68;75.64;100540.94;5018278;28;20559;-90
2022/10/24 11:23:54;;;;;;;12.17;2.27;;;;;;;16.76;76.05;100534.16;5042994;28;20499;-87
2022/10/24 11:26:29;;;;;;;8.17;2.67;;;;;;;16.78;76.32;100538.28;5043113;28;20495;-89
2022/10/24 11:29:30;;;;;;;9.33;2.40;;;;;;;16.77;77.52;100530.31;5042593;28;20293;-91
2022/10/24 11:32:10;;;;;;;9.63;2.60;;;;;;;16.74;77.81;100522.66;5042091;28;20028;-92
2022/10/24 11:35:18;;;;;;;7.53;2.30;;;;;;;16.87;77.77;100533.16;5023934;28;20064;-94
2022/10/24 11:37:48;;;;;;;10.33;2.67;;;;;;;16.87;76.79;100528.50;5033846;28;20037;-93